createdAt,value
2017-07-16T00:00:45.118Z,1039.11
2017-07-16T00:01:45.112Z,1039.14
2017-07-16T00:02:45.111Z,1039.15
2017-07-16T00:03:45.104Z,1039.13
2017-07-16T00:04:45.102Z,1039.15
2017-07-16T00:05:45.091Z,1039.14
2017-07-16T00:06:45.089Z,1039.17
2017-07-16T00:07:45.081Z,1039.15
2017-07-16T00:08:45.079Z,1039.18
2017-07-16T00:09:45.080Z,1039.2
2017-07-16T00:10:45.074Z,1039.14
2017-07-16T00:11:45.066Z,1039.13
2017-07-16T00:12:45.310Z,1039.14
2017-07-16T00:13:45.059Z,1039.19
2017-07-16T00:14:45.051Z,1039.19
2017-07-16T00:15:45.047Z,1039.18
2017-07-16T00:16:45.044Z,1039.15
2017-07-16T00:17:45.036Z,1039.2
2017-07-16T00:18:45.029Z,1039.17
2017-07-16T00:19:45.028Z,1039.21
2017-07-16T00:20:45.021Z,1039.24
2017-07-16T00:21:45.018Z,1039.27
2017-07-16T00:22:45.012Z,1039.29
2017-07-16T00:23:45.007Z,1039.28
2017-07-16T00:24:45.002Z,1039.28
2017-07-16T00:25:44.997Z,1039.3
2017-07-16T00:26:44.992Z,1039.27
2017-07-16T00:27:44.984Z,1039.27
2017-07-16T00:28:44.982Z,1039.3
2017-07-16T00:29:44.977Z,1039.31
2017-07-16T00:30:44.969Z,1039.29
2017-07-16T00:31:44.971Z,1039.35
2017-07-16T00:32:44.962Z,1039.34
2017-07-16T00:33:44.957Z,1039.36
2017-07-16T00:34:44.951Z,1039.4
2017-07-16T00:35:44.951Z,1039.4
2017-07-16T00:36:44.938Z,1039.39
2017-07-16T00:37:44.938Z,1039.42
2017-07-16T00:38:44.931Z,1039.39
2017-07-16T00:39:44.926Z,1039.41
2017-07-16T00:40:44.920Z,1039.37
2017-07-16T00:41:44.914Z,1039.41
2017-07-16T00:42:44.914Z,1039.42
2017-07-16T00:43:44.906Z,1039.41
2017-07-16T00:44:44.903Z,1039.44
2017-07-16T00:45:44.894Z,1039.47
2017-07-16T00:46:44.891Z,1039.48
2017-07-16T00:47:44.884Z,1039.5
2017-07-16T00:48:44.880Z,1039.5
2017-07-16T00:49:44.873Z,1039.57
2017-07-16T00:50:44.870Z,1039.55
2017-07-16T00:51:44.864Z,1039.58
2017-07-16T00:52:44.856Z,1039.6
2017-07-16T00:53:44.853Z,1039.57
2017-07-16T00:54:44.846Z,1039.6
2017-07-16T00:55:44.841Z,1039.58
2017-07-16T00:56:44.836Z,1039.55
2017-07-16T00:57:44.834Z,1039.55
2017-07-16T00:58:44.827Z,1039.59
2017-07-16T00:59:44.821Z,1039.53
2017-07-16T01:00:44.818Z,1039.56
2017-07-16T01:01:44.807Z,1039.57
2017-07-16T01:02:44.805Z,1039.57
2017-07-16T01:03:44.796Z,1039.61
2017-07-16T01:04:44.795Z,1039.62
2017-07-16T01:05:44.785Z,1039.61
2017-07-16T01:06:44.782Z,1039.65
2017-07-16T01:07:44.777Z,1039.63
2017-07-16T01:08:44.772Z,1039.67
2017-07-16T01:09:44.766Z,1039.65
2017-07-16T01:10:44.763Z,1039.65
2017-07-16T01:11:44.757Z,1039.68
2017-07-16T01:12:44.755Z,1039.7
2017-07-16T01:13:44.743Z,1039.67
2017-07-16T01:14:44.738Z,1039.67
2017-07-16T01:15:44.733Z,1039.68
2017-07-16T01:16:44.728Z,1039.69
2017-07-16T01:17:44.722Z,1039.69
2017-07-16T01:18:44.720Z,1039.68
2017-07-16T01:19:44.713Z,1039.68
2017-07-16T01:20:44.711Z,1039.67
2017-07-16T01:21:44.697Z,1039.68
2017-07-16T01:22:44.695Z,1039.66
2017-07-16T01:23:44.688Z,1039.65
2017-07-16T01:24:44.683Z,1039.67
2017-07-16T01:25:44.675Z,1039.65
2017-07-16T01:26:44.673Z,1039.67
2017-07-16T01:27:44.664Z,1039.67
2017-07-16T01:28:44.662Z,1039.68
2017-07-16T01:29:44.656Z,1039.69
2017-07-16T01:30:44.652Z,1039.68
2017-07-16T01:31:44.644Z,1039.69
2017-07-16T01:32:44.641Z,1039.68
2017-07-16T01:33:44.630Z,1039.67
2017-07-16T01:34:44.629Z,1039.71
2017-07-16T01:35:44.618Z,1039.72
2017-07-16T01:36:44.617Z,1039.72
2017-07-16T01:37:44.611Z,1039.7
2017-07-16T01:38:44.604Z,1039.67
2017-07-16T01:39:44.599Z,1039.66
2017-07-16T01:40:44.593Z,1039.7
2017-07-16T01:41:44.587Z,1039.75
2017-07-16T01:42:44.580Z,1039.75
2017-07-16T01:43:44.576Z,1039.71
2017-07-16T01:44:44.570Z,1039.74
2017-07-16T01:45:44.565Z,1039.74
2017-07-16T01:46:44.558Z,1039.75
2017-07-16T01:47:44.553Z,1039.76
2017-07-16T01:48:44.550Z,1039.77
2017-07-16T01:49:44.540Z,1039.76
2017-07-16T01:50:44.536Z,1039.76
2017-07-16T01:51:44.526Z,1039.74
2017-07-16T01:52:44.525Z,1039.72
2017-07-16T01:53:44.517Z,1039.73
2017-07-16T01:54:44.512Z,1039.73
2017-07-16T01:55:44.507Z,1039.75
2017-07-16T01:56:44.499Z,1039.76
2017-07-16T01:57:44.495Z,1039.79
2017-07-16T01:58:44.490Z,1039.8
2017-07-16T01:59:44.483Z,1039.79
2017-07-16T02:00:44.479Z,1039.83
2017-07-16T02:01:44.471Z,1039.81
2017-07-16T02:02:44.464Z,1039.81
2017-07-16T02:03:44.459Z,1039.86
2017-07-16T02:04:44.448Z,1039.83
2017-07-16T02:05:44.448Z,1039.84
2017-07-16T02:06:44.439Z,1039.85
2017-07-16T02:07:44.437Z,1039.89
2017-07-16T02:08:44.431Z,1039.83
2017-07-16T02:09:44.423Z,1039.84
2017-07-16T02:10:44.418Z,1039.83
2017-07-16T02:11:44.412Z,1039.84
2017-07-16T02:12:44.407Z,1039.87
2017-07-16T02:13:44.401Z,1039.88
2017-07-16T02:14:44.392Z,1039.86
2017-07-16T02:15:44.389Z,1039.87
2017-07-16T02:16:44.385Z,1039.84
2017-07-16T02:17:44.378Z,1039.86
2017-07-16T02:18:44.367Z,1039.86
2017-07-16T02:19:44.363Z,1039.85
2017-07-16T02:20:44.357Z,1039.82
2017-07-16T02:21:44.351Z,1039.84
2017-07-16T02:22:44.344Z,1039.83
2017-07-16T02:23:44.341Z,1039.79
2017-07-16T02:24:44.332Z,1039.84
2017-07-16T02:25:44.330Z,1039.83
2017-07-16T02:26:44.323Z,1039.86
2017-07-16T02:27:44.317Z,1039.86
2017-07-16T02:28:44.308Z,1039.87
2017-07-16T02:29:44.304Z,1039.87
2017-07-16T02:30:44.297Z,1039.87
2017-07-16T02:31:44.294Z,1039.86
2017-07-16T02:32:44.283Z,1039.89
2017-07-16T02:33:44.280Z,1039.86
2017-07-16T02:34:44.274Z,1039.88
2017-07-16T02:35:44.269Z,1039.87
2017-07-16T02:36:44.262Z,1039.92
2017-07-16T02:37:44.256Z,1039.88
2017-07-16T02:38:44.498Z,1039.92
2017-07-16T02:39:44.242Z,1039.9
2017-07-16T02:40:44.236Z,1039.92
2017-07-16T02:41:44.233Z,1039.91
2017-07-16T02:42:44.225Z,1039.9
2017-07-16T02:43:44.520Z,1039.97
2017-07-16T02:44:44.210Z,1039.95
2017-07-16T02:45:44.205Z,1039.95
2017-07-16T02:46:44.202Z,1039.97
2017-07-16T02:47:44.200Z,1039.96
2017-07-16T02:48:44.538Z,1039.97
2017-07-16T02:49:44.180Z,1039.92
2017-07-16T02:50:44.174Z,1039.99
2017-07-16T02:51:44.167Z,1039.97
2017-07-16T02:52:44.161Z,1039.96
2017-07-16T02:53:44.407Z,1039.95
2017-07-16T02:54:44.153Z,1039.96
2017-07-16T02:55:44.142Z,1039.93
2017-07-16T02:56:44.139Z,1039.95
2017-07-16T02:57:44.128Z,1039.97
2017-07-16T02:58:44.126Z,1039.96
2017-07-16T02:59:44.119Z,1040.02
2017-07-16T03:00:44.109Z,1040.01
2017-07-16T03:01:44.107Z,1040.04
2017-07-16T03:02:44.102Z,1040.01
2017-07-16T03:03:44.093Z,1040.04
2017-07-16T03:04:44.084Z,1039.97
2017-07-16T03:05:44.077Z,1039.97
2017-07-16T03:06:44.073Z,1039.98
2017-07-16T03:07:44.068Z,1039.96
2017-07-16T03:08:44.063Z,1039.93
2017-07-16T03:09:44.057Z,1039.94
2017-07-16T03:10:44.051Z,1039.96
2017-07-16T03:11:44.041Z,1039.96
2017-07-16T03:12:44.035Z,1039.96
2017-07-16T03:13:44.032Z,1039.92
2017-07-16T03:14:44.024Z,1039.87
2017-07-16T03:15:44.018Z,1039.9
2017-07-16T03:16:44.008Z,1039.88
2017-07-16T03:17:44.006Z,1039.89
2017-07-16T03:18:44.003Z,1039.89
2017-07-16T03:19:43.993Z,1039.9
2017-07-16T03:20:43.985Z,1039.89
2017-07-16T03:21:43.979Z,1039.89
2017-07-16T03:22:43.973Z,1039.91
2017-07-16T03:23:43.967Z,1039.87
2017-07-16T03:24:43.961Z,1039.88
2017-07-16T03:25:43.955Z,1039.84
2017-07-16T03:26:43.944Z,1039.84
2017-07-16T03:27:43.943Z,1039.77
2017-07-16T03:28:43.932Z,1039.84
2017-07-16T03:29:43.929Z,1039.82
2017-07-16T03:30:43.921Z,1039.83
2017-07-16T03:31:43.919Z,1039.79
2017-07-16T03:32:43.910Z,1039.79
2017-07-16T03:33:43.905Z,1039.79
2017-07-16T03:34:43.898Z,1039.75
2017-07-16T03:35:43.893Z,1039.72
2017-07-16T03:36:43.882Z,1039.69
2017-07-16T03:37:43.877Z,1039.64
2017-07-16T03:38:43.873Z,1039.61
2017-07-16T03:39:43.868Z,1039.62
2017-07-16T03:40:43.859Z,1039.51
2017-07-16T03:41:43.855Z,1039.41
2017-07-16T03:42:43.852Z,1039.27
2017-07-16T03:43:43.844Z,1039.05
2017-07-16T03:44:43.841Z,1038.93
2017-07-16T03:45:43.829Z,1038.73
2017-07-16T03:46:43.824Z,1038.57
2017-07-16T03:47:43.819Z,1038.37
2017-07-16T03:48:43.814Z,1038.21
2017-07-16T03:49:43.807Z,1037.99
2017-07-16T03:50:43.806Z,1037.81
2017-07-16T03:51:43.799Z,1037.63
2017-07-16T03:52:43.792Z,1037.53
2017-07-16T03:53:43.785Z,1037.39
2017-07-16T03:54:43.790Z,1037.24
2017-07-16T03:55:43.777Z,1037.12
2017-07-16T03:56:43.776Z,1036.96
2017-07-16T03:57:43.767Z,1036.84
2017-07-16T03:58:43.768Z,1036.75
2017-07-16T03:59:43.762Z,1036.55
2017-07-16T04:00:43.763Z,1036.42
2017-07-16T04:01:43.751Z,1036.24
2017-07-16T04:02:43.752Z,1036.16
2017-07-16T04:03:43.748Z,1036.1
2017-07-16T04:04:43.746Z,1036.01
2017-07-16T04:05:43.737Z,1035.88
2017-07-16T04:06:43.737Z,1035.79
2017-07-16T04:07:43.732Z,1035.7
2017-07-16T04:08:43.731Z,1035.58
2017-07-16T04:09:43.730Z,1035.5
2017-07-16T04:10:43.730Z,1035.38
2017-07-16T04:11:43.724Z,1035.34
2017-07-16T04:12:43.727Z,1035.21
2017-07-16T04:13:43.720Z,1035.14
2017-07-16T04:14:43.969Z,1035.08
2017-07-16T04:15:43.717Z,1034.99
2017-07-16T04:16:43.718Z,1034.89
2017-07-16T04:17:43.716Z,1034.77
2017-07-16T04:18:43.718Z,1034.68
2017-07-16T04:19:44.062Z,1034.57
2017-07-16T04:20:43.717Z,1034.45
2017-07-16T04:21:43.714Z,1034.37
2017-07-16T04:22:43.712Z,1034.28
2017-07-16T04:23:43.712Z,1034.2
2017-07-16T04:24:43.965Z,1034.08
2017-07-16T04:25:43.715Z,1034.05
2017-07-16T04:26:43.712Z,1033.96
2017-07-16T04:27:43.714Z,1033.86
2017-07-16T04:28:43.714Z,1033.79
2017-07-16T04:29:43.971Z,1033.71
2017-07-16T04:30:43.718Z,1033.68
2017-07-16T04:31:43.722Z,1033.6
2017-07-16T04:32:43.723Z,1033.51
2017-07-16T04:33:43.733Z,1033.44
2017-07-16T04:34:43.977Z,1033.35
2017-07-16T04:35:43.732Z,1033.32
2017-07-16T04:36:43.734Z,1033.22
2017-07-16T04:37:43.738Z,1033.19
2017-07-16T04:38:43.741Z,1033.09
2017-07-16T04:39:44.046Z,1033.04
2017-07-16T04:40:43.749Z,1032.94
2017-07-16T04:41:43.752Z,1032.85
2017-07-16T04:42:43.754Z,1032.79
2017-07-16T04:43:43.765Z,1032.78
2017-07-16T04:44:44.022Z,1032.69
2017-07-16T04:45:43.772Z,1032.62
2017-07-16T04:46:43.779Z,1032.62
2017-07-16T04:47:43.781Z,1032.56
2017-07-16T04:48:43.786Z,1032.48
2017-07-16T04:49:44.144Z,1032.47
2017-07-16T04:50:43.799Z,1032.43
2017-07-16T04:51:43.806Z,1032.37
2017-07-16T04:52:43.816Z,1032.34
2017-07-16T04:53:43.818Z,1032.28
2017-07-16T04:54:43.822Z,1032.21
2017-07-16T04:55:43.834Z,1032.14
2017-07-16T04:56:43.840Z,1032.11
2017-07-16T04:57:43.848Z,1032.08
2017-07-16T04:58:43.849Z,1032.07
2017-07-16T04:59:43.861Z,1032.02
2017-07-16T05:00:43.865Z,1031.98
2017-07-16T05:01:43.875Z,1031.94
2017-07-16T05:02:43.882Z,1031.87
2017-07-16T05:03:43.893Z,1031.85
2017-07-16T05:04:43.897Z,1031.81
2017-07-16T05:05:43.910Z,1031.74
2017-07-16T05:06:43.913Z,1031.74
2017-07-16T05:07:43.924Z,1031.72
2017-07-16T05:08:43.932Z,1031.64
2017-07-16T05:09:43.940Z,1031.59
2017-07-16T05:10:43.951Z,1031.53
2017-07-16T05:11:43.962Z,1031.54
2017-07-16T05:12:43.972Z,1031.5
2017-07-16T05:13:43.981Z,1031.47
2017-07-16T05:14:43.984Z,1031.43
2017-07-16T05:15:43.997Z,1031.4
2017-07-16T05:16:44.004Z,1031.34
2017-07-16T05:17:44.017Z,1031.31
2017-07-16T05:18:44.030Z,1031.3
2017-07-16T05:19:44.041Z,1031.33
2017-07-16T05:20:44.047Z,1031.33
2017-07-16T05:21:44.064Z,1031.34
2017-07-16T05:22:44.066Z,1031.3
2017-07-16T05:23:44.079Z,1031.34
2017-07-16T05:24:44.087Z,1031.3
2017-07-16T05:25:44.102Z,1031.31
2017-07-16T05:26:44.110Z,1031.32
2017-07-16T05:27:44.122Z,1031.28
2017-07-16T05:28:44.130Z,1031.25
2017-07-16T05:29:44.141Z,1031.25
2017-07-16T05:30:44.155Z,1031.23
2017-07-16T05:31:44.163Z,1031.21
2017-07-16T05:32:44.177Z,1031.26
2017-07-16T05:33:44.190Z,1031.28
2017-07-16T05:34:44.199Z,1031.23
2017-07-16T05:35:44.212Z,1031.17
2017-07-16T05:36:44.221Z,1031.08
2017-07-16T05:37:44.233Z,1031.07
2017-07-16T05:38:44.244Z,1031.05
2017-07-16T05:39:44.254Z,1031.04
2017-07-16T05:40:44.268Z,1031.03
2017-07-16T05:41:44.283Z,1031.03
2017-07-16T05:42:44.296Z,1030.97
2017-07-16T05:43:44.303Z,1030.91
2017-07-16T05:44:44.318Z,1030.92
2017-07-16T05:45:44.332Z,1030.86
2017-07-16T05:46:44.345Z,1030.77
2017-07-16T05:47:44.353Z,1030.73
2017-07-16T05:48:44.370Z,1030.63
2017-07-16T05:49:44.380Z,1030.56
2017-07-16T05:50:44.397Z,1030.53
2017-07-16T05:51:44.406Z,1030.5
2017-07-16T05:52:44.422Z,1030.44
2017-07-16T05:53:44.435Z,1030.44
2017-07-16T05:54:44.447Z,1030.39
2017-07-16T05:55:44.461Z,1030.6
2017-07-16T05:56:44.475Z,1030.59
2017-07-16T05:57:44.484Z,1030.58
2017-07-16T05:58:44.503Z,1030.54
2017-07-16T05:59:44.518Z,1030.5
2017-07-16T06:00:44.779Z,1030.55
2017-07-16T06:01:44.540Z,1030.56
2017-07-16T06:02:44.554Z,1030.57
2017-07-16T06:03:44.569Z,1030.58
2017-07-16T06:04:44.583Z,1030.55
2017-07-16T06:05:44.844Z,1030.48
2017-07-16T06:06:44.612Z,1030.44
2017-07-16T06:07:44.625Z,1030.42
2017-07-16T06:08:44.645Z,1030.31
2017-07-16T06:09:44.652Z,1030.14
2017-07-16T06:10:44.918Z,1030.07
2017-07-16T06:11:44.686Z,1029.98
2017-07-16T06:12:44.698Z,1030
2017-07-16T06:13:44.713Z,1029.9
2017-07-16T06:14:44.727Z,1029.87
2017-07-16T06:15:45.042Z,1029.8
2017-07-16T06:16:44.756Z,1029.86
2017-07-16T06:17:44.799Z,1029.77
2017-07-16T06:18:44.786Z,1029.62
2017-07-16T06:19:44.804Z,1029.54
2017-07-16T06:20:45.171Z,1029.94
2017-07-16T06:21:44.835Z,1030.01
2017-07-16T06:22:44.849Z,1029.95
2017-07-16T06:23:44.866Z,1029.84
2017-07-16T06:24:44.880Z,1029.84
2017-07-16T06:25:44.897Z,1029.98
2017-07-16T06:26:44.916Z,1030.17
2017-07-16T06:27:44.932Z,1030.27
2017-07-16T06:28:44.947Z,1030.31
2017-07-16T06:29:44.965Z,1030.23
2017-07-16T06:30:44.976Z,1030.37
2017-07-16T06:31:44.991Z,1030.2
2017-07-16T06:32:45.007Z,1030.19
2017-07-16T06:33:45.025Z,1030.25
2017-07-16T06:34:45.040Z,1030.3
2017-07-16T06:35:45.058Z,1030.34
2017-07-16T06:36:45.072Z,1030.27
2017-07-16T06:37:45.090Z,1030.37
2017-07-16T06:38:45.102Z,1030.5
2017-07-16T06:39:45.119Z,1030.57
2017-07-16T06:40:45.130Z,1030.63
2017-07-16T06:41:45.151Z,1030.67
2017-07-16T06:42:45.167Z,1030.71
2017-07-16T06:43:45.181Z,1030.82
2017-07-16T06:44:45.194Z,1030.91
2017-07-16T06:45:45.212Z,1031.09
2017-07-16T06:46:45.226Z,1031.31
2017-07-16T06:47:45.239Z,1031.51
2017-07-16T06:48:45.255Z,1031.63
2017-07-16T06:49:45.270Z,1031.7
2017-07-16T06:50:45.282Z,1031.75
2017-07-16T06:51:45.301Z,1031.73
2017-07-16T06:52:45.312Z,1031.79
2017-07-16T06:53:45.329Z,1031.76
2017-07-16T06:54:45.339Z,1031.67
2017-07-16T06:55:45.359Z,1031.61
2017-07-16T06:56:45.368Z,1031.37
2017-07-16T06:57:45.385Z,1031.27
2017-07-16T06:58:45.398Z,1031.33
2017-07-16T06:59:45.409Z,1031.19
2017-07-16T07:00:45.426Z,1031.11
2017-07-16T07:01:45.439Z,1030.78
2017-07-16T07:02:45.453Z,1030.54
2017-07-16T07:03:45.467Z,1030.21
2017-07-16T07:04:45.480Z,1030.59
2017-07-16T07:05:45.495Z,1030.57
2017-07-16T07:06:45.509Z,1030.86
2017-07-16T07:07:45.521Z,1030.75
2017-07-16T07:08:45.535Z,1030.52
2017-07-16T07:09:45.550Z,1030.7
2017-07-16T07:10:45.568Z,1030.94
2017-07-16T07:11:45.576Z,1031.12
2017-07-16T07:12:45.595Z,1031.28
2017-07-16T07:13:45.605Z,1031.33
2017-07-16T07:14:45.621Z,1031.47
2017-07-16T07:15:45.635Z,1031.6
2017-07-16T07:16:45.649Z,1031.63
2017-07-16T07:17:45.662Z,1031.67
2017-07-16T07:18:45.678Z,1031.68
2017-07-16T07:19:45.687Z,1031.59
2017-07-16T07:20:45.704Z,1031.62
2017-07-16T07:21:45.718Z,1031.46
2017-07-16T07:22:45.729Z,1031.38
2017-07-16T07:23:45.742Z,1031.16
2017-07-16T07:24:45.758Z,1031.08
2017-07-16T07:25:45.768Z,1030.9
2017-07-16T07:26:45.783Z,1030.84
2017-07-16T07:27:45.794Z,1030.66
2017-07-16T07:28:45.810Z,1030.88
2017-07-16T07:29:45.822Z,1030.91
2017-07-16T07:30:45.840Z,1030.57
2017-07-16T07:31:45.851Z,1030.66
2017-07-16T07:32:45.865Z,1030.67
2017-07-16T07:33:45.875Z,1030.69
2017-07-16T07:34:45.888Z,1030.94
2017-07-16T07:35:45.906Z,1031.1
2017-07-16T07:36:45.919Z,1030.95
2017-07-16T07:37:45.931Z,1030.71
2017-07-16T07:38:45.943Z,1030.54
2017-07-16T07:39:45.961Z,1030.39
2017-07-16T07:40:45.975Z,1030.58
2017-07-16T07:41:45.984Z,1030.54
2017-07-16T07:42:45.999Z,1030.46
2017-07-16T07:43:46.011Z,1030.45
2017-07-16T07:44:46.026Z,1030.8
2017-07-16T07:45:46.038Z,1030.51
2017-07-16T07:46:46.056Z,1030.59
2017-07-16T07:47:46.070Z,1030.67
2017-07-16T07:48:46.085Z,1030.94
2017-07-16T07:49:46.098Z,1030.97
2017-07-16T07:50:46.109Z,1030.98
2017-07-16T07:51:46.122Z,1030.88
2017-07-16T07:52:46.139Z,1030.98
2017-07-16T07:53:46.154Z,1031.04
2017-07-16T07:54:46.162Z,1031.5
2017-07-16T07:55:46.182Z,1031.91
2017-07-16T07:56:46.189Z,1032.24
2017-07-16T07:57:46.205Z,1032.39
2017-07-16T07:58:46.220Z,1032.27
2017-07-16T07:59:46.232Z,1032.1
2017-07-16T08:00:46.245Z,1032.37
2017-07-16T08:01:46.258Z,1031.97
2017-07-16T08:02:46.268Z,1031.89
2017-07-16T08:03:46.282Z,1031.9
2017-07-16T08:04:46.294Z,1031.76
2017-07-16T08:05:46.308Z,1031.91
2017-07-16T08:06:46.317Z,1032.11
2017-07-16T08:07:46.332Z,1031.95
2017-07-16T08:08:46.347Z,1031.85
2017-07-16T08:09:46.359Z,1031.65
2017-07-16T08:10:46.365Z,1031.31
2017-07-16T08:11:46.380Z,1031.06
2017-07-16T08:12:46.393Z,1031.21
2017-07-16T08:13:46.407Z,1031.52
2017-07-16T08:14:46.417Z,1031.4
2017-07-16T08:15:46.434Z,1031.6
2017-07-16T08:16:46.441Z,1031.08
2017-07-16T08:17:46.458Z,1030.88
2017-07-16T08:18:46.466Z,1030.33
2017-07-16T08:19:46.482Z,1030.18
2017-07-16T08:20:46.495Z,1029.68
2017-07-16T08:21:46.508Z,1029.24
2017-07-16T08:22:46.520Z,1029.32
2017-07-16T08:23:46.534Z,1030.16
2017-07-16T08:24:46.546Z,1029.65
2017-07-16T08:25:46.560Z,1029.36
2017-07-16T08:26:46.573Z,1029.09
2017-07-16T08:27:46.593Z,1028.63
2017-07-16T08:28:46.602Z,1028.74
2017-07-16T08:29:46.621Z,1028.58
2017-07-16T08:30:46.632Z,1028.4
2017-07-16T08:31:46.646Z,1028.19
2017-07-16T08:32:46.664Z,1027.98
2017-07-16T08:33:46.674Z,1028.36
2017-07-16T08:34:46.695Z,1028.22
2017-07-16T08:35:46.710Z,1028.12
2017-07-16T08:36:46.724Z,1028.22
2017-07-16T08:37:46.737Z,1028.3
2017-07-16T08:38:46.754Z,1028.1
2017-07-16T08:39:46.768Z,1027.95
2017-07-16T08:40:46.787Z,1027.91
2017-07-16T08:41:46.801Z,1028.04
2017-07-16T08:42:46.816Z,1028.4
2017-07-16T08:43:46.835Z,1028.91
2017-07-16T08:44:46.850Z,1029.29
2017-07-16T08:45:46.867Z,1029.68
2017-07-16T08:46:46.881Z,1030.05
2017-07-16T08:47:46.900Z,1030.38
2017-07-16T08:48:46.913Z,1030.43
2017-07-16T08:49:46.931Z,1030.52
2017-07-16T08:50:46.945Z,1030.64
2017-07-16T08:51:46.962Z,1030.84
2017-07-16T08:52:46.977Z,1031.11
2017-07-16T08:53:46.990Z,1031.28
2017-07-16T08:54:47.007Z,1031.41
2017-07-16T08:55:47.018Z,1031.32
2017-07-16T08:56:47.036Z,1031.39
2017-07-16T08:57:47.050Z,1031.4
2017-07-16T08:58:47.060Z,1031.57
2017-07-16T08:59:47.078Z,1031.71
2017-07-16T09:00:47.089Z,1031.8
2017-07-16T09:01:47.105Z,1031.82
2017-07-16T09:02:47.116Z,1031.87
2017-07-16T09:03:47.138Z,1031.98
2017-07-16T09:04:47.152Z,1032.1
2017-07-16T09:05:47.160Z,1032.32
2017-07-16T09:06:47.168Z,1032.48
2017-07-16T09:07:47.183Z,1032.63
2017-07-16T09:08:47.196Z,1032.72
2017-07-16T09:09:47.207Z,1032.78
2017-07-16T09:10:47.220Z,1032.94
2017-07-16T09:11:47.231Z,1032.99
2017-07-16T09:12:47.241Z,1033.03
2017-07-16T09:13:47.253Z,1033.13
2017-07-16T09:14:47.271Z,1033.15
2017-07-16T09:15:47.281Z,1033.19
2017-07-16T09:16:47.591Z,1033.31
2017-07-16T09:17:47.299Z,1033.28
2017-07-16T09:18:47.314Z,1033.29
2017-07-16T09:19:47.323Z,1033.4
2017-07-16T09:20:47.335Z,1033.45
2017-07-16T09:21:47.593Z,1033.45
2017-07-16T09:22:47.356Z,1033.53
2017-07-16T09:23:47.363Z,1033.54
2017-07-16T09:24:47.375Z,1033.59
2017-07-16T09:25:47.389Z,1033.63
2017-07-16T09:26:47.648Z,1033.61
2017-07-16T09:27:47.406Z,1033.69
2017-07-16T09:28:47.417Z,1033.66
2017-07-16T09:29:47.426Z,1033.58
2017-07-16T09:30:47.439Z,1033.5
2017-07-16T09:31:47.698Z,1033.39
2017-07-16T09:32:47.460Z,1033.31
2017-07-16T09:33:47.464Z,1033.27
2017-07-16T09:34:47.477Z,1033.25
2017-07-16T09:35:47.485Z,1033.24
2017-07-16T09:36:47.799Z,1033.2
2017-07-16T09:37:47.502Z,1033.15
2017-07-16T09:38:47.517Z,1033.08
2017-07-16T09:39:47.524Z,1033.04
2017-07-16T09:40:47.536Z,1032.92
2017-07-16T09:41:47.847Z,1032.94
2017-07-16T09:42:47.555Z,1032.88
2017-07-16T09:43:47.567Z,1032.88
2017-07-16T09:44:47.576Z,1032.87
2017-07-16T09:45:47.583Z,1032.8
2017-07-16T09:46:47.892Z,1032.79
2017-07-16T09:47:47.604Z,1032.76
2017-07-16T09:48:47.613Z,1032.68
2017-07-16T09:49:47.622Z,1032.56
2017-07-16T09:50:47.634Z,1032.49
2017-07-16T09:51:47.894Z,1032.43
2017-07-16T09:52:47.655Z,1032.45
2017-07-16T09:53:47.661Z,1032.38
2017-07-16T09:54:47.673Z,1032.45
2017-07-16T09:55:47.681Z,1032.45
2017-07-16T09:56:47.994Z,1032.47
2017-07-16T09:57:47.699Z,1032.48
2017-07-16T09:58:47.718Z,1032.5
2017-07-16T09:59:47.725Z,1032.53
2017-07-16T10:00:47.735Z,1032.48
2017-07-16T10:01:47.990Z,1032.46
2017-07-16T10:02:47.754Z,1032.45
2017-07-16T10:03:47.762Z,1032.46
2017-07-16T10:04:47.775Z,1032.55
2017-07-16T10:05:47.781Z,1032.65
2017-07-16T10:06:48.045Z,1032.62
2017-07-16T10:07:47.800Z,1032.64
2017-07-16T10:08:47.824Z,1032.63
2017-07-16T10:09:47.823Z,1032.62
2017-07-16T10:10:47.836Z,1032.6
2017-07-16T10:11:48.147Z,1032.57
2017-07-16T10:12:47.857Z,1032.56
2017-07-16T10:13:47.864Z,1032.39
2017-07-16T10:14:47.875Z,1032.35
2017-07-16T10:15:47.883Z,1032.29
2017-07-16T10:16:47.897Z,1032.26
2017-07-16T10:17:47.899Z,1032.3
2017-07-16T10:18:47.917Z,1032.25
2017-07-16T10:19:47.921Z,1032.18
2017-07-16T10:20:47.935Z,1032.34
2017-07-16T10:21:47.944Z,1032.54
2017-07-16T10:22:47.953Z,1032.61
2017-07-16T10:23:47.964Z,1032.65
2017-07-16T10:24:47.978Z,1032.8
2017-07-16T10:25:47.986Z,1032.84
2017-07-16T10:26:47.997Z,1032.89
2017-07-16T10:27:48.005Z,1033
2017-07-16T10:28:48.012Z,1033.04
2017-07-16T10:29:48.023Z,1033.05
2017-07-16T10:30:48.030Z,1033.12
2017-07-16T10:31:48.045Z,1033.13
2017-07-16T10:32:48.052Z,1033.15
2017-07-16T10:33:48.062Z,1033.12
2017-07-16T10:34:48.070Z,1033.1
2017-07-16T10:35:48.078Z,1033.09
2017-07-16T10:36:48.089Z,1033
2017-07-16T10:37:48.099Z,1032.96
2017-07-16T10:38:48.109Z,1032.91
2017-07-16T10:39:48.117Z,1032.9
2017-07-16T10:40:48.130Z,1032.83
2017-07-16T10:41:48.139Z,1032.81
2017-07-16T10:42:48.144Z,1032.75
2017-07-16T10:43:48.154Z,1032.64
2017-07-16T10:44:48.165Z,1032.59
2017-07-16T10:45:48.170Z,1032.5
2017-07-16T10:46:48.182Z,1032.4
2017-07-16T10:47:48.194Z,1032.38
2017-07-16T10:48:48.201Z,1032.3
2017-07-16T10:49:48.214Z,1032.28
2017-07-16T10:50:48.216Z,1032.24
2017-07-16T10:51:48.229Z,1032.25
2017-07-16T10:52:48.239Z,1032.33
2017-07-16T10:53:48.249Z,1032.28
2017-07-16T10:54:48.258Z,1032.32
2017-07-16T10:55:48.267Z,1032.27
2017-07-16T10:56:48.273Z,1032.3
2017-07-16T10:57:48.284Z,1032.26
2017-07-16T10:58:48.291Z,1032.28
2017-07-16T10:59:48.301Z,1032.27
2017-07-16T11:00:48.311Z,1032.36
2017-07-16T11:01:48.326Z,1032.37
2017-07-16T11:02:48.333Z,1032.4
2017-07-16T11:03:48.342Z,1032.37
2017-07-16T11:04:48.357Z,1032.33
2017-07-16T11:05:48.359Z,1032.23
2017-07-16T11:06:48.367Z,1032.21
2017-07-16T11:07:48.381Z,1032.19
2017-07-16T11:08:48.386Z,1032.19
2017-07-16T11:09:48.399Z,1032.31
2017-07-16T11:10:48.406Z,1032.26
2017-07-16T11:11:48.417Z,1032.31
2017-07-16T11:12:48.426Z,1032.38
2017-07-16T11:13:48.439Z,1032.38
2017-07-16T11:14:48.444Z,1032.41
2017-07-16T11:15:48.453Z,1032.38
2017-07-16T11:16:48.466Z,1032.42
2017-07-16T11:17:48.474Z,1032.36
2017-07-16T11:18:48.486Z,1032.36
2017-07-16T11:19:48.490Z,1032.34
2017-07-16T11:20:48.499Z,1032.27
2017-07-16T11:21:48.509Z,1032.24
2017-07-16T11:22:48.520Z,1032.19
2017-07-16T11:23:48.526Z,1032.17
2017-07-16T11:24:48.541Z,1032.18
2017-07-16T11:25:48.549Z,1032.09
2017-07-16T11:26:48.560Z,1032.05
2017-07-16T11:27:48.569Z,1031.97
2017-07-16T11:28:48.578Z,1031.96
2017-07-16T11:29:48.591Z,1031.93
2017-07-16T11:30:48.595Z,1031.99
2017-07-16T11:31:48.605Z,1032.08
2017-07-16T11:32:48.612Z,1032.11
2017-07-16T11:33:48.628Z,1032.25
2017-07-16T11:34:48.635Z,1032.34
2017-07-16T11:35:48.650Z,1032.41
2017-07-16T11:36:48.654Z,1032.41
2017-07-16T11:37:48.664Z,1032.44
2017-07-16T11:38:48.673Z,1032.59
2017-07-16T11:39:48.679Z,1032.58
2017-07-16T11:40:48.692Z,1032.55
2017-07-16T11:41:48.699Z,1032.46
2017-07-16T11:42:49.062Z,1032.45
2017-07-16T11:43:48.716Z,1032.41
2017-07-16T11:44:48.728Z,1032.34
2017-07-16T11:45:48.738Z,1032.37
2017-07-16T11:46:48.743Z,1032.36
2017-07-16T11:47:49.006Z,1032.39
2017-07-16T11:48:48.767Z,1032.47
2017-07-16T11:49:48.776Z,1032.44
2017-07-16T11:50:48.784Z,1032.44
2017-07-16T11:51:48.789Z,1032.41
2017-07-16T11:52:49.047Z,1032.38
2017-07-16T11:53:48.808Z,1032.48
2017-07-16T11:54:48.821Z,1032.42
2017-07-16T11:55:48.829Z,1032.42
2017-07-16T11:56:48.836Z,1032.4
2017-07-16T11:57:49.148Z,1032.35
2017-07-16T11:58:48.854Z,1032.31
2017-07-16T11:59:48.866Z,1032.24
2017-07-16T12:00:48.871Z,1032.19
2017-07-16T12:01:48.880Z,1032.16
2017-07-16T12:02:48.888Z,1032.15
2017-07-16T12:03:48.899Z,1032.06
2017-07-16T12:04:48.906Z,1032.09
2017-07-16T12:05:48.917Z,1032.05
2017-07-16T12:06:48.925Z,1032.01
2017-07-16T12:07:48.934Z,1032.06
2017-07-16T12:08:48.943Z,1032.11